Latest Weather Observations for Dalby

IDQ60801

Issued at 11:02 pm EST Monday 22 December 2014 (issued every 30 minutes, with the page automatically refreshed every 10 minutes)

About weather observations | Map of weather stations | Latest weather observations for QLD | Other Formats
Station Details ID: 041522 Name: DALBY AIRPORT Lat: -27.16 Lon: 151.26 Height: 343.9 m
Data from the previous 72 hours. | See also: Recent months at Dalby
Date/Time
EST
Temp
°C
App
Temp
°C
Dew
Point
Rel
Hum
%
Delta-T
°C
Wind Press
QNH
hPa
Press
MSL
hPa
Rain
since 9 am
mm
Dir
 
Spd
km/h
Gust
km/h
Spd
kts
Gust
kts
22/11:00pm 20.5 16.1 13.0 62 4.3 ENE 28 35 15 19 1016.5 1014.6 0.0
22/10:30pm 20.9 16.8 12.8 60 4.7 ENE 26 37 14 20 1016.8 1014.9 0.0
22/10:00pm 21.2 17.2 11.8 55 5.3 E 24 32 13 17 1016.7 1014.8 0.0
22/09:30pm 22.0 17.1 11.4 51 6.0 E 28 35 15 19 1016.5 1014.6 0.0
22/09:00pm 22.6 18.4 12.3 52 5.9 E 26 32 14 17 1016.0 1014.1 0.0
22/08:30pm 23.4 19.5 12.1 49 6.5 ENE 24 30 13 16 1016.1 1014.2 0.0
22/08:00pm 24.2 20.3 12.2 47 6.9 ENE 24 28 13 15 1015.8 1013.9 0.0
22/07:30pm 25.0 21.6 12.6 46 7.3 ENE 22 32 12 17 1015.5 1013.5 0.0
22/07:00pm 26.1 22.6 12.2 42 8.1 ENE 22 30 12 16 1015.2 1013.2 0.0
22/06:30pm 27.3 23.3 11.7 37 9.1 ENE 24 30 13 16 1014.6 1012.7 0.0
22/06:00pm 28.5 24.7 11.1 34 10.1 ENE 22 30 12 16 1014.2 1012.3 0.0
22/05:30pm 30.0 26.0 10.5 30 11.3 E 22 33 12 18 1013.8 1011.9 0.0
22/05:00pm 30.5 25.9 11.0 30 11.4 ENE 26 33 14 18 1013.5 1011.6 0.0
22/04:30pm 30.8 26.5 10.7 29 11.7 ENE 24 35 13 19 1013.4 1011.5 0.0
22/04:00pm 30.8 27.2 10.7 29 11.7 E 20 37 11 20 1013.4 1011.5 0.0
22/03:30pm 30.7 27.0 10.1 28 11.9 ENE 20 37 11 20 1013.7 1011.8 0.0
22/03:00pm 30.8 27.1 10.2 28 11.9 ESE 20 30 11 16 1014.1 1012.2 0.0
22/02:30pm 30.8 27.7 11.7 31 11.3 E 19 26 10 14 1014.3 1012.4 0.0
22/02:00pm 30.4 27.2 11.4 31 11.2 E 19 30 10 16 1014.7 1012.8 0.0
22/01:30pm 31.1 27.8 11.5 30 11.6 ESE 20 28 11 15 1015.3 1013.3 0.0
22/01:00pm 30.9 28.4 12.3 32 11.1 ENE 17 28 9 15 1015.7 1013.8 0.0
22/12:30pm 29.5 27.7 12.0 34 10.3 ENE 13 28 7 15 1016.3 1014.4 0.0
22/12:00pm 29.6 28.4 12.9 35 10.0 SE 11 22 6 12 1016.8 1014.9 0.0
22/11:30am 28.2 26.8 13.3 40 8.9 E 13 26 7 14 1017.3 1015.4 0.0
22/11:00am 27.6 26.1 14.3 44 8.1 E 15 26 8 14 1017.6 1015.7 0.0
22/10:30am 27.3 25.4 15.3 48 7.4 E 19 28 10 15 1018.0 1016.0 0.0
22/10:00am 26.7 25.1 15.1 49 7.1 E 17 28 9 15 1018.1 1016.1 0.0
22/09:30am 26.6 25.0 15.9 51 6.6 E 19 26 10 14 1018.1 1016.1 0.0
22/09:00am 25.2 24.1 15.2 54 6.1 E 15 28 8 15 1018.3 1016.4 0.0
22/08:30am 23.7 22.1 14.9 57 5.3 ENE 17 26 9 14 1018.4 1016.5 0.0
22/08:00am 23.5 19.9 15.3 60 5.0 E 28 37 15 20 1018.1 1016.1 0.0
22/07:30am 22.1 19.2 15.2 65 4.2 ENE 24 33 13 18 1018.0 1016.0 0.0
22/07:00am 22.2 20.4 15.5 66 4.1 E 19 30 10 16 1018.0 1016.0 0.0
22/06:30am 21.3 20.1 16.0 72 3.2 E 17 22 9 12 1017.5 1015.6 0.0
22/06:00am 20.4 20.6 15.8 75 2.8 SE 9 11 5 6 1017.6 1015.7 0.0
22/05:30am 19.2 18.7 15.9 81 2.0 ESE 13 15 7 8 1017.1 1015.2 0.0
22/05:00am 18.7 18.0 15.4 81 2.0 E 13 15 7 8 1016.5 1014.6 0.0
22/04:30am 19.4 18.1 15.9 80 2.1 E 17 22 9 12 1016.0 1014.1 0.0
22/04:00am 19.5 18.3 16.0 80 2.1 E 17 22 9 12 1015.7 1013.8 0.0
22/03:30am 20.3 17.7 15.9 76 2.7 E 24 32 13 17 1015.8 1013.9 0.0
22/03:00am 20.5 18.7 16.1 76 2.7 E 20 28 11 15 1016.0 1014.1 0.0
22/02:30am 20.7 18.6 16.1 75 2.8 E 22 26 12 14 1016.1 1014.2 0.0
22/02:00am 21.3 19.6 15.8 71 3.3 E 19 28 10 15 1016.3 1014.4 0.0
22/01:30am 21.5 20.3 16.0 71 3.4 ENE 17 24 9 13 1016.5 1014.6 0.0
22/01:00am 21.6 20.1 16.3 72 3.2 ENE 19 26 10 14 1016.7 1014.8 0.0
22/12:30am 21.7 20.1 16.6 73 3.1 E 20 28 11 15 1016.8 1014.9 0.0
22/12:00am 21.8 20.5 16.7 73 3.1 ENE 19 24 10 13 1016.7 1014.8 0.0
 
Date/Time
EST
Temp
°C
App
Temp
°C
Dew
Point
Rel
Hum
%
Delta-T
°C
Wind Press
QNH
hPa
Press
MSL
hPa
Rain
since 9 am
mm
Dir
 
Spd
km/h
Gust
km/h
Spd
kts
Gust
kts
21/11:30pm 22.1 20.2 16.8 72 3.3 ESE 22 28 12 15 1016.6 1014.7 0.0
21/11:00pm 22.4 21.0 16.9 71 3.4 NE 20 32 11 17 1015.8 1013.9 0.0
21/10:30pm 23.5 24.4 16.5 65 4.3 SE 7 9 4 5 1017.4 1015.5 0.0
21/10:00pm 23.4 23.6 16.7 66 4.2 NNE 11 17 6 9 1017.4 1015.5 0.0
21/09:30pm 24.0 21.8 16.8 64 4.5 NE 24 33 13 18 1017.3 1015.4 0.0
21/09:00pm 24.7 22.2 16.2 59 5.3 ENE 24 35 13 19 1016.8 1014.9 0.0
21/08:30pm 25.2 22.8 15.5 55 6.0 ENE 22 33 12 18 1016.1 1014.2 0.0
21/08:00pm 25.6 24.1 15.3 53 6.3 ENE 17 20 9 11 1015.8 1013.9 0.0
21/07:30pm 26.0 24.9 15.4 52 6.5 ENE 15 20 8 11 1015.8 1013.9 0.0
21/07:00pm 26.5 24.3 14.9 49 7.1 ENE 20 24 11 13 1014.9 1012.9 0.0
21/06:30pm 26.9 25.3 15.0 48 7.3 NE 17 20 9 11 1014.9 1012.9 0.0
21/06:00pm 27.5 25.3 14.8 45 7.8 NE 20 28 11 15 1014.2 1012.3 0.0
21/05:30pm 28.3 26.3 14.9 44 8.2 NNE 19 24 10 13 1013.9 1012.0 0.0
21/05:00pm 28.5 26.2 14.7 43 8.5 NNE 20 28 11 15 1013.7 1011.8 0.0
21/04:30pm 29.7 27.5 14.3 39 9.4 NE 19 32 10 17 1013.6 1011.7 0.0
21/04:00pm 30.3 28.6 14.8 39 9.6 NNE 17 24 9 13 1013.7 1011.8 0.0
21/03:30pm 28.9 27.0 14.3 40 8.9 NE 17 26 9 14 1014.0 1012.1 0.0
21/03:00pm 28.7 27.3 14.5 42 8.7 ENE 15 24 8 13 1014.4 1012.5 0.0
21/02:30pm 30.2 28.5 14.7 39 9.6 NE 17 26 9 14 1015.0 1013.0 0.0
21/02:00pm 29.5 29.8 16.0 44 8.5 NNE 9 15 5 8 1015.4 1013.4 0.0
21/01:30pm 28.5 26.8 14.7 43 8.5 NE 17 26 9 14 1015.7 1013.8 0.0
21/01:00pm 28.4 27.4 15.7 46 7.9 NNW 15 19 8 10 1016.2 1014.3 0.0
21/12:30pm 27.8 27.3 14.8 45 8.0 NNE 11 20 6 11 1016.6 1014.7 0.0
21/12:00pm 27.6 26.6 14.6 45 7.9 NE 13 22 7 12 1017.1 1015.2 0.0
21/11:30am 27.5 27.1 15.2 47 7.6 NNE 11 17 6 9 1017.4 1015.5 0.0
21/11:00am 26.8 26.9 15.5 50 7.0 NW 9 17 5 9 1017.9 1015.9 0.0
21/10:30am 26.4 26.1 15.4 50 6.8 NNW 11 15 6 8 1017.9 1015.9 0.0
21/10:00am 27.0 27.4 15.4 49 7.1 E 7 19 4 10 1018.1 1016.1 0.0
21/09:30am 25.7 26.1 15.4 53 6.3 NE 7 11 4 6 1018.2 1016.2 0.0
21/09:00am 25.1 25.9 16.3 58 5.5 ENE 7 13 4 7 1018.3 1016.4 0.0
21/08:30am 23.8 24.3 15.6 60 5.0 NNW 7 13 4 7 1018.3 1016.4 0.0
21/08:00am 23.2 23.3 15.5 62 4.7 NE 9 19 5 10 1018.3 1016.4 0.0
21/07:30am 22.7 21.4 15.8 65 4.2 ENE 17 22 9 12 1018.4 1016.5 0.0
21/07:00am 22.1 20.3 15.9 68 3.8 ENE 20 26 11 14 1018.0 1016.0 0.0
21/06:30am 21.5 18.9 16.0 71 3.4 ENE 24 30 13 16 1017.4 1015.5 0.0
21/06:00am 20.9 18.8 16.1 74 2.9 ENE 22 30 12 16 1017.0 1015.1 0.0
21/05:30am 20.7 18.6 16.1 75 2.8 ENE 22 30 12 16 1016.7 1014.8 0.0
21/05:00am 20.6 18.9 16.2 76 2.7 E 20 28 11 15 1016.1 1014.2 0.0
21/04:30am 20.6 18.5 16.2 76 2.7 E 22 30 12 16 1015.9 1014.0 0.0
21/04:00am 20.5 18.9 16.5 78 2.4 E 20 30 11 16 1015.5 1013.5 0.0
21/03:30am 20.4 18.3 16.2 77 2.6 E 22 28 12 15 1015.3 1013.3 0.0
21/03:00am 21.0 19.5 16.8 77 2.6 E 20 26 11 14 1015.1 1013.1 0.0
21/02:30am 21.1 19.3 16.9 77 2.6 E 22 28 12 15 1015.1 1013.1 0.0
21/02:00am 21.0 19.8 17.0 78 2.5 E 19 24 10 13 1015.3 1013.3 0.0
21/01:30am 20.8 19.4 17.0 79 2.4 ENE 20 26 11 14 1015.5 1013.5 0.0
21/01:00am 20.9 19.6 16.9 78 2.5 ENE 19 24 10 13 1015.5 1013.5 0.0
21/12:30am 21.2 18.7 17.0 77 2.6 ENE 26 37 14 20 1015.5 1013.5 0.0
21/12:00am 21.2 19.4 17.0 77 2.6 ENE 22 32 12 17 1015.5 1013.5 0.0
 
Date/Time
EST
Temp
°C
App
Temp
°C
Dew
Point
Rel
Hum
%
Delta-T
°C
Wind Press
QNH
hPa
Press
MSL
hPa
Rain
since 9 am
mm
Dir
 
Spd
km/h
Gust
km/h
Spd
kts
Gust
kts
20/11:30pm 21.5 18.6 17.1 76 2.7 E 28 35 15 19 1015.4 1013.4 0.0
20/11:00pm 21.7 18.7 16.9 74 3.0 E 28 37 15 20 1015.5 1013.5 0.0
20/10:30pm 22.0 19.2 17.2 74 3.0 ENE 28 41 15 22 1015.5 1013.5 0.0
20/10:00pm 22.3 19.1 17.2 73 3.2 E 30 39 16 21 1015.4 1013.4 0.0
20/09:30pm 22.6 19.8 17.3 72 3.3 ENE 28 39 15 21 1015.4 1013.4 0.0
20/09:00pm 22.8 20.1 17.5 72 3.3 ENE 28 41 15 22 1015.2 1013.2 0.0
20/08:30pm 23.1 19.9 17.3 70 3.6 ENE 30 37 16 20 1014.7 1012.8 0.0
20/08:00pm 23.5 19.7 17.3 68 3.9 ENE 33 46 18 25 1014.3 1012.4 0.0
20/07:30pm 24.0 21.2 17.3 66 4.2 ENE 28 35 15 19 1013.9 1012.0 0.0
20/07:00pm 24.6 21.0 17.3 64 4.6 ENE 32 41 17 22 1013.2 1011.3 0.0
20/06:30pm 25.9 22.1 17.3 59 5.4 E 33 43 18 23 1012.8 1010.8 0.0
20/06:00pm 27.4 22.9 16.4 51 6.9 E 35 44 19 24 1012.3 1010.3 0.0
20/05:30pm 28.6 24.3 15.5 45 8.1 E 32 43 17 23 1011.9 1009.9 0.0
20/05:00pm 28.8 25.7 15.7 45 8.2 ENE 26 33 14 18 1011.4 1009.5 0.0
20/04:30pm 29.7 25.2 15.0 40 9.1 E 32 39 17 21 1011.1 1009.2 0.0
20/04:16pm 30.4 26.5 14.5 38 9.8 ESE 28 35 15 19 1011.1 1009.2 0.0
20/04:00pm 33.3 32.4 11.2 26 13.1 NNW 7 15 4 8 1011.3 1009.4 0.0
20/03:30pm 32.4 30.9 10.4 26 12.8 W 9 19 5 10 1011.2 1009.3 0.0
20/03:00pm 32.6 31.4 12.8 30 12.0 WNW 11 20 6 11 1011.5 1009.6 0.0
20/02:30pm 31.4 29.9 10.7 28 12.1 WNW 9 24 5 13 1012.0 1010.0 0.0
20/02:00pm 30.9 29.2 11.3 30 11.5 NE 11 17 6 9 1012.3 1010.3 0.0
20/01:30pm 32.0 29.7 11.7 28 12.1 NNW 15 24 8 13 1012.9 1010.9 0.0
20/01:00pm 31.4 29.2 12.2 30 11.5 NW 15 30 8 16 1013.3 1011.4 0.0
20/12:30pm 30.5 29.2 12.4 33 10.8 N 11 24 6 13 1013.7 1011.8 0.0
20/12:00pm 30.5 28.7 13.3 35 10.4 NNW 15 28 8 15 1014.2 1012.3 0.0
20/11:30am 30.0 28.1 12.9 35 10.3 NNW 15 26 8 14 1014.5 1012.6 0.0
20/11:00am 29.7 28.0 14.7 40 9.2 NNW 17 26 9 14 1015.0 1013.0 0.0
20/10:30am 29.5 27.3 14.9 41 9.0 NW 20 28 11 15 1015.4 1013.4 0.0
20/10:00am 28.3 26.9 14.5 43 8.4 N 15 28 8 15 1015.5 1013.5 0.0
20/09:30am 27.1 27.1 15.1 47 7.4 N 9 17 5 9 1015.6 1013.6 0.0
20/09:00am 26.6 25.3 15.9 51 6.6 ENE 17 22 9 12 1015.4 1013.4 0.0
20/08:30am 25.9 24.3 16.5 56 5.9 ENE 20 28 11 15 1015.4 1013.4 0.0
20/08:00am 24.5 21.1 16.7 61 4.9 ENE 30 37 16 20 1015.3 1013.3 0.0
20/07:30am 24.1 21.3 17.4 66 4.2 ENE 28 35 15 19 1015.2 1013.2 0.0
20/07:00am 22.9 19.9 16.9 69 3.7 ENE 28 39 15 21 1014.9 1012.9 0.0
20/06:30am 22.0 19.6 17.4 75 2.9 E 26 35 14 19 1014.5 1012.6 0.0
20/06:00am 21.1 19.5 17.5 80 2.2 E 22 28 12 15 1014.1 1012.2 0.0
20/05:30am 20.1 19.0 17.3 84 1.7 E 19 24 10 13 1013.7 1011.8 0.0
20/05:00am 19.4 18.0 17.0 86 1.5 E 20 22 11 12 1013.3 1011.4 0.0
20/04:30am 19.1 17.7 16.5 85 1.6 ESE 19 20 10 11 1012.9 1010.9 0.0
20/04:00am 19.3 17.6 16.3 83 1.8 E 20 22 11 12 1012.6 1010.6 0.0
20/03:30am 19.3 17.8 16.3 83 1.8 E 19 20 10 11 1012.5 1010.5 0.0
20/03:00am 19.2 18.1 16.4 84 1.7 ESE 17 19 9 10 1012.5 1010.5 0.0
20/02:30am 20.1 19.3 17.1 83 1.9 ESE 17 20 9 11 1012.4 1010.4 0.0
20/02:00am 19.7 18.8 16.9 84 1.7 ESE 17 19 9 10 1012.5 1010.5 0.0
20/01:30am 19.8 18.8 16.6 82 2.0 ESE 17 20 9 11 1012.7 1010.7 0.0
20/01:00am 20.6 19.2 17.0 80 2.2 ESE 20 28 11 15 1012.8 1010.8 0.0
20/12:30am 20.2 19.1 16.4 79 2.3 ESE 17 20 9 11 1013.1 1011.2 0.0
20/12:00am 20.3 19.3 15.5 74 2.9 ESE 15 17 8 9 1013.3 1011.4 0.0
 
Date/Time
EST
Temp
°C
App
Temp
°C
Dew
Point
Rel
Hum
%
Delta-T
°C
Wind Press
QNH
hPa
Press
MSL
hPa
Rain
since 9 am
mm
Dir
 
Spd
km/h
Gust
km/h
Spd
kts
Gust
kts
19/11:30pm 19.2 19.4 14.7 75 2.7 ESE 7 20 4 11 1013.7 1011.8 0.0

Other Formats:

Comma delimited format used in spreadsheet applications
http://www.bom.gov.au/fwo/IDQ60801/IDQ60801.94542.axf

JavaScript Object Notation format (JSON) in row-major order
http://www.bom.gov.au/fwo/IDQ60801/IDQ60801.94542.json